Time,TemperatureF,DewpointF,PressureIn,WindDirection,WindDirectionDegrees,WindSpeedMPH,WindSpeedGustMPH,Humidity,HourlyPrecipIn,Conditions,Clouds,dailyrainin,SoftwareType,DateUTC
2013-01-22 00:00:00,31.7,14.7,30.02,ESE,103,1.0,1.0,49,0.00,,,0.00,Wunderground v.1.15,2013-01-22 05:00:00,
2013-01-22 00:10:00,31.4,15.3,30.02,North,5,1.0,1.0,51,0.00,,,0.00,Wunderground v.1.15,2013-01-22 05:10:00,
2013-01-22 00:15:00,31.2,15.6,30.02,South,173,1.0,1.0,52,0.00,,,0.00,Wunderground v.1.15,2013-01-22 05:15:00,
2013-01-22 00:20:00,31.0,15.0,30.02,WNW,300,1.0,1.0,51,0.00,,,0.00,Wunderground v.1.15,2013-01-22 05:20:00,
2013-01-22 00:25:00,30.9,14.9,30.02,ESE,105,1.0,2.0,51,0.00,,,0.00,Wunderground v.1.15,2013-01-22 05:25:00,
2013-01-22 00:35:00,30.6,14.6,30.02,NNE,26,2.0,2.0,51,0.00,,,0.00,Wunderground v.1.15,2013-01-22 05:35:00,
2013-01-22 00:40:00,30.5,14.0,30.02,SE,140,2.0,2.0,50,0.00,,,0.00,Wunderground v.1.15,2013-01-22 05:40:00,
2013-01-22 00:45:00,30.4,15.3,30.02,West,275,2.0,2.0,53,0.00,,,0.00,Wunderground v.1.15,2013-01-22 05:45:00,
2013-01-22 00:50:00,30.2,14.7,30.01,ESE,121,1.0,5.0,52,0.00,,,0.00,Wunderground v.1.15,2013-01-22 05:50:00,
2013-01-22 00:55:00,30.0,14.5,30.02,NE,51,2.0,5.0,52,0.00,,,0.00,Wunderground v.1.15,2013-01-22 05:55:00,
2013-01-22 01:00:00,29.9,14.4,30.02,East,90,2.0,6.0,52,0.00,,,0.00,Wunderground v.1.15,2013-01-22 06:00:00,
2013-01-22 01:10:00,29.6,14.5,30.02,NNW,342,2.0,2.0,53,0.00,,,0.00,Wunderground v.1.15,2013-01-22 06:10:00,
2013-01-22 01:15:00,29.4,14.4,30.02,NNW,338,1.0,6.0,53,0.00,,,0.00,Wunderground v.1.15,2013-01-22 06:15:00,
2013-01-22 01:20:00,29.3,14.3,30.02,SSE,149,2.0,6.0,53,0.00,,,0.00,Wunderground v.1.15,2013-01-22 06:20:00,
2013-01-22 01:25:00,29.2,14.6,30.02,NNW,337,2.0,6.0,54,0.00,,,0.00,Wunderground v.1.15,2013-01-22 06:25:00,
2013-01-22 01:30:00,29.0,13.6,30.02,NW,307,2.0,2.0,52,0.00,,,0.00,Wunderground v.1.15,2013-01-22 06:30:00,
2013-01-22 01:40:00,28.7,13.3,30.02,SE,140,2.0,6.0,52,0.00,,,0.00,Wunderground v.1.15,2013-01-22 06:40:00,
2013-01-22 01:45:00,28.5,13.5,30.02,SE,134,3.0,6.0,53,0.00,,,0.00,Wunderground v.1.15,2013-01-22 06:45:00,
2013-01-22 01:50:00,28.4,13.0,30.02,NW,316,2.0,6.0,52,0.00,,,0.00,Wunderground v.1.15,2013-01-22 06:50:00,
2013-01-22 01:55:00,28.3,13.3,30.02,NE,50,2.0,6.0,53,0.00,,,0.00,Wunderground v.1.15,2013-01-22 06:55:00,
2013-01-22 02:00:00,28.1,13.6,30.03,East,86,2.0,6.0,54,0.00,,,0.00,Wunderground v.1.15,2013-01-22 07:00:00,
2013-01-22 02:05:00,28.0,13.1,30.03,East,96,2.0,6.0,53,0.00,,,0.00,Wunderground v.1.15,2013-01-22 07:05:00,
2013-01-22 02:15:00,27.8,12.9,30.04,SW,219,2.0,4.0,53,0.00,,,0.00,Wunderground v.1.15,2013-01-22 07:15:00,
2013-01-22 02:20:00,27.7,14.0,30.03,South,186,2.0,2.0,56,0.00,,,0.00,Wunderground v.1.15,2013-01-22 07:20:00,
2013-01-22 02:25:00,27.6,13.1,30.03,SSE,153,2.0,6.0,54,0.00,,,0.00,Wunderground v.1.15,2013-01-22 07:25:00,
2013-01-22 02:30:00,27.5,13.0,30.03,East,99,1.0,1.0,54,0.00,,,0.00,Wunderground v.1.15,2013-01-22 07:30:00,
2013-01-22 02:35:00,27.3,12.8,30.03,East,92,2.0,4.0,54,0.00,,,0.00,Wunderground v.1.15,2013-01-22 07:35:00,
2013-01-22 02:45:00,27.1,13.1,30.04,NW,325,2.0,6.0,55,0.00,,,0.00,Wunderground v.1.15,2013-01-22 07:45:00,
2013-01-22 02:50:00,26.9,12.5,30.04,East,85,1.0,6.0,54,0.00,,,0.00,Wunderground v.1.15,2013-01-22 07:50:00,
2013-01-22 02:55:00,26.8,12.4,30.04,WSW,250,2.0,6.0,54,0.00,,,0.00,Wunderground v.1.15,2013-01-22 07:55:00,
2013-01-22 03:00:00,26.7,12.3,30.04,SE,133,1.0,1.0,54,0.00,,,0.00,Wunderground v.1.15,2013-01-22 08:00:00,
2013-01-22 03:10:00,26.5,12.5,30.04,WSW,240,1.0,1.0,55,0.00,,,0.00,Wunderground v.1.15,2013-01-22 08:10:00,
2013-01-22 03:15:00,26.5,12.1,30.04,North,360,1.0,1.0,54,0.00,,,0.00,Wunderground v.1.15,2013-01-22 08:15:00,
2013-01-22 03:20:00,26.4,12.0,30.04,ESE,110,1.0,1.0,54,0.00,,,0.00,Wunderground v.1.15,2013-01-22 08:20:00,
2013-01-22 03:25:00,26.3,11.9,30.04,WNW,302,2.0,2.0,54,0.00,,,0.00,Wunderground v.1.15,2013-01-22 08:25:00,
2013-01-22 03:35:00,26.2,12.2,30.04,ENE,74,2.0,6.0,55,0.00,,,0.00,Wunderground v.1.15,2013-01-22 08:35:00,
2013-01-22 03:40:00,26.0,11.6,30.03,SE,139,2.0,2.0,54,0.00,,,0.00,Wunderground v.1.15,2013-01-22 08:40:00,
2013-01-22 03:45:00,25.9,11.9,30.04,NE,40,2.0,2.0,55,0.00,,,0.00,Wunderground v.1.15,2013-01-22 08:45:00,
2013-01-22 03:50:00,25.7,11.3,30.04,NNE,16,2.0,4.0,54,0.00,,,0.00,Wunderground v.1.15,2013-01-22 08:50:00,
2013-01-22 03:55:00,25.5,11.6,30.04,SW,217,2.0,4.0,55,0.00,,,0.00,Wunderground v.1.15,2013-01-22 08:55:00,
2013-01-22 04:00:00,25.4,12.3,30.03,NE,53,2.0,2.0,57,0.00,,,0.00,Wunderground v.1.15,2013-01-22 09:00:00,
2013-01-22 04:05:00,25.2,11.7,30.04,ENE,63,1.0,4.0,56,0.00,,,0.00,Wunderground v.1.15,2013-01-22 09:05:00,
2013-01-22 04:10:00,25.0,11.5,30.04,WNW,283,1.0,4.0,56,0.00,,,0.00,Wunderground v.1.15,2013-01-22 09:10:00,
2013-01-22 04:20:00,24.7,11.2,30.04,ENE,68,3.0,3.0,56,0.00,,,0.00,Wunderground v.1.15,2013-01-22 09:20:00,
2013-01-22 04:25:00,24.5,11.4,30.04,NE,44,2.0,4.0,57,0.00,,,0.00,Wunderground v.1.15,2013-01-22 09:25:00,
2013-01-22 04:30:00,24.4,11.3,30.04,SE,130,2.0,2.0,57,0.00,,,0.00,Wunderground v.1.15,2013-01-22 09:30:00,
2013-01-22 04:35:00,24.2,10.7,30.04,SSE,163,2.0,4.0,56,0.00,,,0.00,Wunderground v.1.15,2013-01-22 09:35:00,
2013-01-22 04:40:00,24.1,11.0,30.05,West,263,2.0,4.0,57,0.00,,,0.00,Wunderground v.1.15,2013-01-22 09:40:00,
2013-01-22 04:45:00,24.0,11.3,30.05,SE,129,1.0,4.0,58,0.00,,,0.00,Wunderground v.1.15,2013-01-22 09:45:00,
2013-01-22 04:55:00,23.8,11.2,30.05,SW,220,2.0,5.0,58,0.00,,,0.00,Wunderground v.1.15,2013-01-22 09:55:00,
2013-01-22 05:00:00,23.6,10.6,30.05,SSE,148,3.0,3.0,57,0.00,,,0.00,Wunderground v.1.15,2013-01-22 10:00:00,
2013-01-22 05:05:00,23.5,10.9,30.06,ENE,69,2.0,4.0,58,0.00,,,0.00,Wunderground v.1.15,2013-01-22 10:05:00,
2013-01-22 05:10:00,23.4,11.2,30.06,SW,234,1.0,1.0,59,0.00,,,0.00,Wunderground v.1.15,2013-01-22 10:10:00,
2013-01-22 05:15:00,23.3,10.7,30.06,East,90,2.0,2.0,58,0.00,,,0.00,Wunderground v.1.15,2013-01-22 10:15:00,
2013-01-22 05:25:00,23.1,10.5,30.08,South,173,1.0,4.0,58,0.00,,,0.00,Wunderground v.1.15,2013-01-22 10:25:00,
2013-01-22 05:30:00,23.0,10.0,30.08,SSW,202,2.0,4.0,57,0.00,,,0.00,Wunderground v.1.15,2013-01-22 10:30:00,
2013-01-22 05:35:00,22.9,10.3,30.08,ENE,62,2.0,4.0,58,0.00,,,0.00,Wunderground v.1.15,2013-01-22 10:35:00,
2013-01-22 05:40:00,22.8,10.6,30.08,South,181,1.0,1.0,59,0.00,,,0.00,Wunderground v.1.15,2013-01-22 10:40:00,
2013-01-22 05:45:00,22.7,10.1,30.08,WSW,252,1.0,3.0,58,0.00,,,0.00,Wunderground v.1.15,2013-01-22 10:45:00,
2013-01-22 05:50:00,22.6,10.4,30.09,SE,131,1.0,1.0,59,0.00,,,0.00,Wunderground v.1.15,2013-01-22 10:50:00,
2013-01-22 06:00:00,22.5,10.7,30.09,South,188,1.0,3.0,60,0.00,,,0.00,Wunderground v.1.15,2013-01-22 11:00:00,
2013-01-22 06:10:00,22.2,9.7,30.10,ESE,123,1.0,1.0,58,0.00,,,0.00,Wunderground v.1.15,2013-01-22 11:10:00,
2013-01-22 06:15:00,22.1,9.6,30.10,SW,218,1.0,2.0,58,0.00,,,0.00,Wunderground v.1.15,2013-01-22 11:15:00,
2013-01-22 06:20:00,22.0,9.5,30.09,WSW,240,1.0,2.0,58,0.00,,,0.00,Wunderground v.1.15,2013-01-22 11:20:00,
2013-01-22 06:25:00,21.9,9.4,30.10,WSW,248,1.0,2.0,58,0.00,,,0.00,Wunderground v.1.15,2013-01-22 11:25:00,
2013-01-22 06:30:00,21.8,9.3,30.10,ENE,59,1.0,1.0,58,0.00,,,0.00,Wunderground v.1.15,2013-01-22 11:30:00,
2013-01-22 06:35:00,21.7,9.2,30.10,SE,133,1.0,1.0,58,0.00,,,0.00,Wunderground v.1.15,2013-01-22 11:35:00,
2013-01-22 06:40:00,21.7,9.2,30.10,SSW,193,1.0,1.0,58,0.00,,,0.00,Wunderground v.1.15,2013-01-22 11:40:00,
2013-01-22 06:45:00,21.6,9.1,30.10,NE,49,1.0,1.0,58,0.00,,,0.00,Wunderground v.1.15,2013-01-22 11:45:00,
2013-01-22 06:50:00,21.6,8.7,30.11,South,188,1.0,2.0,57,0.00,,,0.00,Wunderground v.1.15,2013-01-22 11:50:00,
2013-01-22 06:55:00,21.5,9.0,30.11,West,279,1.0,2.0,58,0.00,,,0.00,Wunderground v.1.15,2013-01-22 11:55:00,
2013-01-22 07:05:00,21.4,8.9,30.12,WNW,298,0.0,4.0,58,0.00,,,0.00,Wunderground v.1.15,2013-01-22 12:05:00,
2013-01-22 07:10:00,21.3,8.4,30.12,WNW,298,0.0,4.0,57,0.00,,,0.00,Wunderground v.1.15,2013-01-22 12:10:00,
2013-01-22 07:15:00,21.3,9.2,30.13,West,265,0.0,4.0,59,0.00,,,0.00,Wunderground v.1.15,2013-01-22 12:15:00,
2013-01-22 07:20:00,21.3,8.4,30.13,SE,142,1.0,1.0,57,0.00,,,0.00,Wunderground v.1.15,2013-01-22 12:20:00,
2013-01-22 07:25:00,21.2,8.7,30.14,ESE,115,1.0,4.0,58,0.00,,,0.00,Wunderground v.1.15,2013-01-22 12:25:00,
2013-01-22 07:30:00,21.1,8.2,30.13,ESE,107,1.0,1.0,57,0.00,,,0.00,Wunderground v.1.15,2013-01-22 12:30:00,
2013-01-22 07:35:00,21.1,8.2,30.13,SE,132,1.0,2.0,57,0.00,,,0.00,Wunderground v.1.15,2013-01-22 12:35:00,
2013-01-22 07:40:00,21.1,8.2,30.14,SSW,197,1.0,4.0,57,0.00,,,0.00,Wunderground v.1.15,2013-01-22 12:40:00,
2013-01-22 07:45:00,21.0,8.1,30.14,SSW,193,1.0,4.0,57,0.00,,,0.00,Wunderground v.1.15,2013-01-22 12:45:00,
2013-01-22 07:50:00,20.8,7.2,30.14,SW,219,1.0,1.0,55,0.00,,,0.00,Wunderground v.1.15,2013-01-22 12:50:00,
2013-01-22 07:55:00,20.8,7.2,30.14,ESE,111,1.0,4.0,55,0.00,,,0.00,Wunderground v.1.15,2013-01-22 12:55:00,
2013-01-22 08:00:00,20.7,7.5,30.14,ENE,74,1.0,1.0,56,0.00,,,0.00,Wunderground v.1.15,2013-01-22 13:00:00,
2013-01-22 08:10:00,20.7,7.5,30.15,WSW,249,1.0,1.0,56,0.00,,,0.00,Wunderground v.1.15,2013-01-22 13:10:00,
2013-01-22 08:15:00,20.8,7.6,30.15,East,82,1.0,3.0,56,0.00,,,0.00,Wunderground v.1.15,2013-01-22 13:15:00,
2013-01-22 08:20:00,20.7,7.5,30.15,WNW,282,1.0,1.0,56,0.00,,,0.00,Wunderground v.1.15,2013-01-22 13:20:00,
2013-01-22 08:25:00,20.7,7.1,30.15,ESE,117,2.0,2.0,55,0.00,,,0.00,Wunderground v.1.15,2013-01-22 13:25:00,
2013-01-22 08:30:00,20.8,7.6,30.16,SW,217,1.0,1.0,56,0.00,,,0.00,Wunderground v.1.15,2013-01-22 13:30:00,
2013-01-22 08:40:00,20.9,7.2,30.16,SSE,163,1.0,4.0,55,0.00,,,0.00,Wunderground v.1.15,2013-01-22 13:40:00,
2013-01-22 08:45:00,20.9,7.2,30.16,West,281,1.0,4.0,55,0.00,,,0.00,Wunderground v.1.15,2013-01-22 13:45:00,
2013-01-22 08:50:00,21.0,7.3,30.16,SSW,205,1.0,1.0,55,0.00,,,0.00,Wunderground v.1.15,2013-01-22 13:50:00,
2013-01-22 08:55:00,21.1,7.4,30.16,West,275,1.0,4.0,55,0.00,,,0.00,Wunderground v.1.15,2013-01-22 13:55:00,
2013-01-22 09:00:00,21.1,7.4,30.17,SW,219,1.0,1.0,55,0.00,,,0.00,Wunderground v.1.15,2013-01-22 14:00:00,
2013-01-22 09:10:00,21.4,7.7,30.17,SE,146,1.0,1.0,55,0.00,,,0.00,Wunderground v.1.15,2013-01-22 14:10:00,
2013-01-22 09:20:00,21.6,7.1,30.18,SSW,200,1.0,2.0,53,0.00,,,0.00,Wunderground v.1.15,2013-01-22 14:20:00,
2013-01-22 09:25:00,21.7,6.8,30.18,ESE,114,1.0,2.0,52,0.00,,,0.00,Wunderground v.1.15,2013-01-22 14:25:00,
2013-01-22 09:30:00,21.8,7.3,30.19,ENE,61,1.0,2.0,53,0.00,,,0.00,Wunderground v.1.15,2013-01-22 14:30:00,
2013-01-22 09:35:00,21.8,7.3,30.19,NE,51,1.0,2.0,53,0.00,,,0.00,Wunderground v.1.15,2013-01-22 14:35:00,
2013-01-22 09:40:00,22.0,7.0,30.20,ENE,76,1.0,4.0,52,0.00,,,0.00,Wunderground v.1.15,2013-01-22 14:40:00,
2013-01-22 09:45:00,22.1,7.1,30.19,ESE,105,1.0,4.0,52,0.00,,,0.00,Wunderground v.1.15,2013-01-22 14:45:00,
2013-01-22 09:55:00,22.5,6.6,30.21,ENE,77,1.0,1.0,50,0.00,,,0.00,Wunderground v.1.15,2013-01-22 14:55:00,
2013-01-22 10:00:00,22.7,7.7,30.21,NE,54,1.0,1.0,52,0.00,,,0.00,Wunderground v.1.15,2013-01-22 15:00:00,
2013-01-22 10:05:00,22.9,7.4,30.21,WNW,289,1.0,4.0,51,0.00,,,0.00,Wunderground v.1.15,2013-01-22 15:05:00,
2013-01-22 10:10:00,23.0,7.1,30.21,NNW,329,1.0,1.0,50,0.00,,,0.00,Wunderground v.1.15,2013-01-22 15:10:00,
2013-01-22 10:15:00,23.2,7.3,30.21,SW,222,1.0,5.0,50,0.00,,,0.00,Wunderground v.1.15,2013-01-22 15:15:00,
2013-01-22 10:20:00,23.4,7.5,30.22,WSW,246,0.0,5.0,50,0.00,,,0.00,Wunderground v.1.15,2013-01-22 15:20:00,
2013-01-22 10:25:00,23.7,7.3,30.22,SE,135,1.0,5.0,49,0.00,,,0.00,Wunderground v.1.15,2013-01-22 15:25:00,
2013-01-22 10:35:00,24.0,7.1,30.22,SW,232,1.0,5.0,48,0.00,,,0.00,Wunderground v.1.15,2013-01-22 15:35:00,
2013-01-22 10:40:00,24.1,6.3,30.22,SSW,210,1.0,1.0,46,0.00,,,0.00,Wunderground v.1.15,2013-01-22 15:40:00,
2013-01-22 10:45:00,24.2,6.8,30.21,SW,232,1.0,5.0,47,0.00,,,0.00,Wunderground v.1.15,2013-01-22 15:45:00,
2013-01-22 10:50:00,24.5,7.1,30.21,SW,224,1.0,1.0,47,0.00,,,0.00,Wunderground v.1.15,2013-01-22 15:50:00,
2013-01-22 10:55:00,24.8,6.9,30.22,NE,52,1.0,2.0,46,0.00,,,0.00,Wunderground v.1.15,2013-01-22 15:55:00,
2013-01-22 11:05:00,25.2,6.3,30.22,East,87,1.0,5.0,44,0.00,,,0.00,Wunderground v.1.15,2013-01-22 16:05:00,
2013-01-22 11:10:00,25.3,5.9,30.22,SSW,201,2.0,5.0,43,0.00,,,0.00,Wunderground v.1.15,2013-01-22 16:10:00,
2013-01-22 11:15:00,25.3,5.4,30.22,ENE,77,2.0,5.0,42,0.00,,,0.00,Wunderground v.1.15,2013-01-22 16:15:00,
2013-01-22 11:20:00,25.3,4.8,30.22,East,88,3.0,5.0,41,0.00,,,0.00,Wunderground v.1.15,2013-01-22 16:20:00,
2013-01-22 11:25:00,25.4,5.5,30.22,SW,232,2.0,5.0,42,0.00,,,0.00,Wunderground v.1.15,2013-01-22 16:25:00,
2013-01-22 11:30:00,25.8,5.8,30.22,ESE,109,1.0,1.0,42,0.00,,,0.00,Wunderground v.1.15,2013-01-22 16:30:00,
2013-01-22 11:40:00,26.3,5.8,30.23,NW,321,1.0,1.0,41,0.00,,,0.00,Wunderground v.1.15,2013-01-22 16:40:00,
2013-01-22 11:45:00,26.5,5.4,30.22,NNW,333,1.0,5.0,40,0.00,,,0.00,Wunderground v.1.15,2013-01-22 16:45:00,
2013-01-22 11:50:00,26.8,5.7,30.22,ESE,108,1.0,1.0,40,0.00,,,0.00,Wunderground v.1.15,2013-01-22 16:50:00,
2013-01-22 11:55:00,27.1,5.4,30.22,NE,51,1.0,2.0,39,0.00,,,0.00,Wunderground v.1.15,2013-01-22 16:55:00,
2013-01-22 12:00:00,27.0,4.7,30.22,SW,230,3.0,3.0,38,0.00,,,0.00,Wunderground v.1.15,2013-01-22 17:00:00,
2013-01-22 12:10:00,27.6,5.3,30.21,East,81,1.0,3.0,38,0.00,,,0.00,Wunderground v.1.15,2013-01-22 17:10:00,
2013-01-22 12:20:00,28.0,3.8,30.20,North,350,2.0,4.0,35,0.00,,,0.00,Wunderground v.1.15,2013-01-22 17:20:00,
2013-01-22 12:25:00,28.2,5.8,30.20,SE,130,2.0,4.0,38,0.00,,,0.00,Wunderground v.1.15,2013-01-22 17:25:00,
2013-01-22 12:30:00,28.2,4.0,30.20,ESE,102,1.0,4.0,35,0.00,,,0.00,Wunderground v.1.15,2013-01-22 17:30:00,
2013-01-22 12:40:00,28.4,3.6,30.19,ESE,122,2.0,2.0,34,0.00,,,0.00,Wunderground v.1.15,2013-01-22 17:40:00,
2013-01-22 12:45:00,28.4,2.9,30.19,ENE,78,2.0,3.0,33,0.00,,,0.00,Wunderground v.1.15,2013-01-22 17:45:00,
2013-01-22 12:50:00,28.3,3.5,30.19,WNW,295,2.0,2.0,34,0.00,,,0.00,Wunderground v.1.15,2013-01-22 17:50:00,
2013-01-22 12:55:00,28.5,3.6,30.19,ESE,120,1.0,2.0,34,0.00,,,0.00,Wunderground v.1.15,2013-01-22 17:55:00,
2013-01-22 13:00:00,28.8,5.2,30.19,SW,215,1.0,10.0,36,0.00,,,0.00,Wunderground v.1.15,2013-01-22 18:00:00,
2013-01-22 13:05:00,29.0,3.4,30.19,NNE,18,1.0,10.0,33,0.00,,,0.00,Wunderground v.1.15,2013-01-22 18:05:00,
2013-01-22 13:10:00,29.1,2.9,30.19,ESE,106,1.0,10.0,32,0.00,,,0.00,Wunderground v.1.15,2013-01-22 18:10:00,
2013-01-22 13:15:00,29.3,3.7,30.18,East,94,1.0,10.0,33,0.00,,,0.00,Wunderground v.1.15,2013-01-22 18:15:00,
2013-01-22 13:20:00,29.5,3.9,30.19,East,83,1.0,10.0,33,0.00,,,0.00,Wunderground v.1.15,2013-01-22 18:20:00,
2013-01-22 13:25:00,29.8,2.8,30.19,SSW,207,1.0,10.0,31,0.00,,,0.00,Wunderground v.1.15,2013-01-22 18:25:00,
2013-01-22 13:35:00,30.0,2.3,30.19,SE,124,2.0,10.0,30,0.00,,,0.00,Wunderground v.1.15,2013-01-22 18:35:00,
2013-01-22 13:40:00,29.9,2.9,30.19,ENE,66,2.0,10.0,31,0.00,,,0.00,Wunderground v.1.15,2013-01-22 18:40:00,
2013-01-22 13:45:00,30.0,1.5,30.19,ESE,121,2.0,10.0,29,0.00,,,0.00,Wunderground v.1.15,2013-01-22 18:45:00,
2013-01-22 13:50:00,29.7,2.0,30.19,SSE,157,3.0,3.0,30,0.00,,,0.00,Wunderground v.1.15,2013-01-22 18:50:00,
2013-01-22 13:55:00,29.9,1.4,30.18,South,182,3.0,10.0,29,0.00,,,0.00,Wunderground v.1.15,2013-01-22 18:55:00,
2013-01-22 14:05:00,30.2,3.1,30.19,SSW,202,1.0,10.0,31,0.00,,,0.00,Wunderground v.1.15,2013-01-22 19:05:00,
2013-01-22 14:10:00,30.9,3.0,30.19,SE,138,1.0,10.0,30,0.00,,,0.00,Wunderground v.1.15,2013-01-22 19:10:00,
2013-01-22 14:15:00,31.4,2.8,30.19,North,360,1.0,10.0,29,0.00,,,0.00,Wunderground v.1.15,2013-01-22 19:15:00,
2013-01-22 14:20:00,31.4,3.5,30.19,ENE,63,1.0,10.0,30,0.00,,,0.00,Wunderground v.1.15,2013-01-22 19:20:00,
2013-01-22 14:25:00,31.5,3.6,30.19,NE,47,1.0,10.0,30,0.00,,,0.00,Wunderground v.1.15,2013-01-22 19:25:00,
2013-01-22 14:30:00,31.6,2.9,30.19,East,86,1.0,1.0,29,0.00,,,0.00,Wunderground v.1.15,2013-01-22 19:30:00,
2013-01-22 14:40:00,30.9,0.0,30.17,SSE,167,2.0,2.0,26,0.00,,,0.00,Wunderground v.1.15,2013-01-22 19:40:00,
2013-01-22 14:45:00,31.0,0.9,30.18,SE,144,2.0,10.0,27,0.00,,,0.00,Wunderground v.1.15,2013-01-22 19:45:00,
2013-01-22 14:50:00,31.2,1.8,30.18,ESE,122,2.0,10.0,28,0.00,,,0.00,Wunderground v.1.15,2013-01-22 19:50:00,
2013-01-22 14:55:00,31.4,2.0,30.19,SSW,205,1.0,10.0,28,0.00,,,0.00,Wunderground v.1.15,2013-01-22 19:55:00,
2013-01-22 15:00:00,31.8,1.6,30.18,South,173,1.0,4.0,27,0.00,,,0.00,Wunderground v.1.15,2013-01-22 20:00:00,
2013-01-22 15:10:00,31.8,1.6,30.18,ENE,76,3.0,3.0,27,0.00,,,0.00,Wunderground v.1.15,2013-01-22 20:10:00,
2013-01-22 15:15:00,31.6,0.6,30.18,SE,131,2.0,4.0,26,0.00,,,0.00,Wunderground v.1.15,2013-01-22 20:15:00,
2013-01-22 15:20:00,31.7,2.3,30.18,ESE,113,2.0,2.0,28,0.00,,,0.00,Wunderground v.1.15,2013-01-22 20:20:00,
2013-01-22 15:25:00,31.9,1.6,30.18,East,98,1.0,5.0,27,0.00,,,0.00,Wunderground v.1.15,2013-01-22 20:25:00,
2013-01-22 15:30:00,32.0,2.5,30.18,East,94,1.0,2.0,28,0.00,,,0.00,Wunderground v.1.15,2013-01-22 20:30:00,
2013-01-22 15:35:00,32.1,1.8,30.18,ESE,105,1.0,2.0,27,0.00,,,0.00,Wunderground v.1.15,2013-01-22 20:35:00,
2013-01-22 15:45:00,32.1,1.0,30.19,ESE,106,1.0,2.0,26,0.00,,,0.00,Wunderground v.1.15,2013-01-22 20:45:00,
2013-01-22 15:50:00,32.0,1.7,30.19,NW,317,1.0,1.0,27,0.00,,,0.00,Wunderground v.1.15,2013-01-22 20:50:00,
2013-01-22 15:55:00,32.0,1.7,30.19,East,96,1.0,1.0,27,0.00,,,0.00,Wunderground v.1.15,2013-01-22 20:55:00,
2013-01-22 16:00:00,32.0,2.5,30.19,East,96,0.0,4.0,28,0.00,,,0.00,Wunderground v.1.15,2013-01-22 21:00:00,
2013-01-22 16:05:00,32.1,1.0,30.19,WNW,292,0.0,4.0,26,0.00,,,0.00,Wunderground v.1.15,2013-01-22 21:05:00,
2013-01-22 16:15:00,31.6,2.2,30.19,SE,134,1.0,4.0,28,0.00,,,0.00,Wunderground v.1.15,2013-01-22 21:15:00,
2013-01-22 16:20:00,31.4,1.2,30.19,ENE,68,1.0,4.0,27,0.00,,,0.00,Wunderground v.1.15,2013-01-22 21:20:00,
2013-01-22 16:25:00,31.2,2.6,30.19,NE,49,1.0,4.0,29,0.00,,,0.00,Wunderground v.1.15,2013-01-22 21:25:00,
2013-01-22 16:30:00,31.2,1.8,30.19,East,99,1.0,4.0,28,0.00,,,0.00,Wunderground v.1.15,2013-01-22 21:30:00,
2013-01-22 16:35:00,31.2,1.0,30.20,ESE,123,1.0,4.0,27,0.00,,,0.00,Wunderground v.1.15,2013-01-22 21:35:00,
2013-01-22 16:40:00,31.1,1.7,30.20,ESE,111,1.0,4.0,28,0.00,,,0.00,Wunderground v.1.15,2013-01-22 21:40:00,
2013-01-22 16:45:00,31.1,1.0,30.20,ESE,111,1.0,4.0,27,0.00,,,0.00,Wunderground v.1.15,2013-01-22 21:45:00,
2013-01-22 16:50:00,31.1,1.7,30.20,East,94,1.0,4.0,28,0.00,,,0.00,Wunderground v.1.15,2013-01-22 21:50:00,
2013-01-22 16:55:00,30.9,0.8,30.20,SE,132,2.0,5.0,27,0.00,,,0.00,Wunderground v.1.15,2013-01-22 21:55:00,
2013-01-22 17:00:00,30.8,0.7,30.20,NE,53,2.0,2.0,27,0.00,,,0.00,Wunderground v.1.15,2013-01-22 22:00:00,
2013-01-22 17:05:00,30.7,1.4,30.20,North,11,2.0,4.0,28,0.00,,,0.00,Wunderground v.1.15,2013-01-22 22:05:00,
2013-01-22 17:10:00,30.5,1.2,30.21,ESE,121,1.0,1.0,28,0.00,,,0.00,Wunderground v.1.15,2013-01-22 22:10:00,
2013-01-22 17:15:00,30.3,0.3,30.21,SW,229,1.0,4.0,27,0.00,,,0.00,Wunderground v.1.15,2013-01-22 22:15:00,
2013-01-22 17:20:00,30.2,0.9,30.21,WNW,300,0.0,4.0,28,0.00,,,0.00,Wunderground v.1.15,2013-01-22 22:20:00,
2013-01-22 17:25:00,30.1,3.7,30.22,WNW,300,0.0,4.0,32,0.00,,,0.00,Wunderground v.1.15,2013-01-22 22:25:00,
2013-01-22 17:30:00,30.0,2.3,30.22,SSW,193,0.0,4.0,30,0.00,,,0.00,Wunderground v.1.15,2013-01-22 22:30:00,
2013-01-22 17:35:00,29.9,3.6,30.22,SSW,193,0.0,4.0,32,0.00,,,0.00,Wunderground v.1.15,2013-01-22 22:35:00,
2013-01-22 17:40:00,29.7,2.7,30.22,WSW,240,0.0,4.0,31,0.00,,,0.00,Wunderground v.1.15,2013-01-22 22:40:00,
2013-01-22 17:50:00,29.3,2.4,30.22,SSE,157,0.0,4.0,31,0.00,,,0.00,Wunderground v.1.15,2013-01-22 22:50:00,
2013-01-22 17:55:00,29.1,1.5,30.22,SE,142,1.0,4.0,30,0.00,,,0.00,Wunderground v.1.15,2013-01-22 22:55:00,
2013-01-22 18:00:00,29.0,1.4,30.22,East,93,0.0,0.0,30,0.00,,,0.00,Wunderground v.1.15,2013-01-22 23:00:00,
2013-01-22 18:10:00,28.6,3.1,30.22,SE,124,0.0,0.0,33,0.00,,,0.00,Wunderground v.1.15,2013-01-22 23:10:00,
2013-01-22 18:15:00,28.4,2.9,30.22,SE,128,0.0,0.0,33,0.00,,,0.00,Wunderground v.1.15,2013-01-22 23:15:00,
2013-01-22 18:25:00,28.2,2.1,30.22,SE,128,0.0,0.0,32,0.00,,,0.00,Wunderground v.1.15,2013-01-22 23:25:00,
2013-01-22 18:30:00,28.0,3.2,30.22,SE,128,0.0,0.0,34,0.00,,,0.00,Wunderground v.1.15,2013-01-22 23:30:00,
2013-01-22 18:35:00,27.9,1.8,30.21,SE,143,0.0,0.0,32,0.00,,,0.00,Wunderground v.1.15,2013-01-22 23:35:00,
2013-01-22 18:40:00,27.8,1.0,30.21,SE,143,0.0,0.0,31,0.00,,,0.00,Wunderground v.1.15,2013-01-22 23:40:00,
2013-01-22 18:45:00,27.8,4.9,30.21,SE,143,0.0,0.0,37,0.00,,,0.00,Wunderground v.1.15,2013-01-22 23:45:00,
2013-01-22 18:50:00,27.5,5.2,30.20,SE,143,0.0,0.0,38,0.00,,,0.00,Wunderground v.1.15,2013-01-22 23:50:00,
2013-01-22 18:55:00,27.4,3.9,30.21,SE,143,0.0,0.0,36,0.00,,,0.00,Wunderground v.1.15,2013-01-22 23:55:00,
2013-01-22 19:00:00,27.2,3.7,30.20,SE,143,0.0,4.0,36,0.00,,,0.00,Wunderground v.1.15,2013-01-23 00:00:00,
2013-01-22 19:05:00,27.1,4.8,30.21,SE,142,0.0,4.0,38,0.00,,,0.00,Wunderground v.1.15,2013-01-23 00:05:00,
2013-01-22 19:10:00,27.1,4.2,30.21,SE,142,0.0,4.0,37,0.00,,,0.00,Wunderground v.1.15,2013-01-23 00:10:00,
2013-01-22 19:15:00,27.0,4.7,30.21,SE,142,0.0,4.0,38,0.00,,,0.00,Wunderground v.1.15,2013-01-23 00:15:00,
2013-01-22 19:20:00,26.9,5.8,30.21,SE,142,0.0,4.0,40,0.00,,,0.00,Wunderground v.1.15,2013-01-23 00:20:00,
2013-01-22 19:30:00,26.6,4.4,30.22,SSW,210,0.0,4.0,38,0.00,,,0.00,Wunderground v.1.15,2013-01-23 00:30:00,
2013-01-22 19:35:00,26.5,3.7,30.23,SSW,210,0.0,4.0,37,0.00,,,0.00,Wunderground v.1.15,2013-01-23 00:35:00,
2013-01-22 19:40:00,26.5,3.1,30.23,SSW,210,0.0,4.0,36,0.00,,,0.00,Wunderground v.1.15,2013-01-23 00:40:00,
2013-01-22 19:45:00,26.3,4.7,30.23,SSW,210,0.0,4.0,39,0.00,,,0.00,Wunderground v.1.15,2013-01-23 00:45:00,
2013-01-22 19:50:00,26.2,4.6,30.24,SSW,210,0.0,4.0,39,0.00,,,0.00,Wunderground v.1.15,2013-01-23 00:50:00,
2013-01-22 20:00:00,26.0,4.4,30.24,ESE,112,0.0,4.0,39,0.00,,,0.00,Wunderground v.1.15,2013-01-23 01:00:00,
2013-01-22 20:05:00,25.9,4.3,30.24,ESE,112,0.0,4.0,39,0.00,,,0.00,Wunderground v.1.15,2013-01-23 01:05:00,
2013-01-22 20:10:00,25.7,3.6,30.24,ESE,112,0.0,4.0,38,0.00,,,0.00,Wunderground v.1.15,2013-01-23 01:10:00,
2013-01-22 20:15:00,25.6,4.6,30.25,ESE,103,0.0,4.0,40,0.00,,,0.00,Wunderground v.1.15,2013-01-23 01:15:00,
2013-01-22 20:20:00,25.5,3.4,30.25,South,184,0.0,4.0,38,0.00,,,0.00,Wunderground v.1.15,2013-01-23 01:20:00,
2013-01-22 20:25:00,25.5,3.4,30.25,NE,36,0.0,4.0,38,0.00,,,0.00,Wunderground v.1.15,2013-01-23 01:25:00,
2013-01-22 20:35:00,25.3,3.2,30.25,NE,36,0.0,4.0,38,0.00,,,0.00,Wunderground v.1.15,2013-01-23 01:35:00,
2013-01-22 20:40:00,25.2,3.7,30.25,NNW,332,0.0,4.0,39,0.00,,,0.00,Wunderground v.1.15,2013-01-23 01:40:00,
2013-01-22 20:45:00,25.1,3.6,30.25,NNW,342,0.0,4.0,39,0.00,,,0.00,Wunderground v.1.15,2013-01-23 01:45:00,
2013-01-22 20:50:00,25.1,4.1,30.25,SSE,151,0.0,4.0,40,0.00,,,0.00,Wunderground v.1.15,2013-01-23 01:50:00,
2013-01-22 20:55:00,25.0,4.6,30.24,South,172,0.0,4.0,41,0.00,,,0.00,Wunderground v.1.15,2013-01-23 01:55:00,
2013-01-22 21:00:00,24.9,4.5,30.25,South,172,0.0,0.0,41,0.00,,,0.00,Wunderground v.1.15,2013-01-23 02:00:00,
2013-01-22 21:10:00,24.8,4.9,30.25,SSW,199,0.0,1.0,42,0.00,,,0.00,Wunderground v.1.15,2013-01-23 02:10:00,
2013-01-22 21:15:00,24.8,4.4,30.25,SW,227,0.0,1.0,41,0.00,,,0.00,Wunderground v.1.15,2013-01-23 02:15:00,
2013-01-22 21:20:00,24.7,4.8,30.25,SSE,157,1.0,1.0,42,0.00,,,0.00,Wunderground v.1.15,2013-01-23 02:20:00,
2013-01-22 21:25:00,24.7,4.8,30.25,SE,137,0.0,1.0,42,0.00,,,0.00,Wunderground v.1.15,2013-01-23 02:25:00,
2013-01-22 21:30:00,24.7,4.8,30.25,SE,137,0.0,0.0,42,0.00,,,0.00,Wunderground v.1.15,2013-01-23 02:30:00,
2013-01-22 21:40:00,24.5,5.2,30.25,SE,128,0.0,0.0,43,0.00,,,0.00,Wunderground v.1.15,2013-01-23 02:40:00,
2013-01-22 21:45:00,24.4,4.0,30.25,SE,130,0.0,0.0,41,0.00,,,0.00,Wunderground v.1.15,2013-01-23 02:45:00,
2013-01-22 21:50:00,24.4,4.6,30.25,SSE,167,0.0,1.0,42,0.00,,,0.00,Wunderground v.1.15,2013-01-23 02:50:00,
2013-01-22 21:55:00,24.4,4.0,30.25,SSE,167,0.0,1.0,41,0.00,,,0.00,Wunderground v.1.15,2013-01-23 02:55:00,
2013-01-22 22:00:00,24.3,5.5,30.25,West,271,0.0,2.0,44,0.00,,,0.00,Wunderground v.1.15,2013-01-23 03:00:00,
2013-01-22 22:10:00,24.4,4.6,30.25,NNW,332,0.0,2.0,42,0.00,,,0.00,Wunderground v.1.15,2013-01-23 03:10:00,
2013-01-22 22:15:00,24.4,3.5,30.25,North,355,0.0,2.0,40,0.00,,,0.00,Wunderground v.1.15,2013-01-23 03:15:00,
2013-01-22 22:20:00,24.4,3.5,30.26,North,355,0.0,2.0,40,0.00,,,0.00,Wunderground v.1.15,2013-01-23 03:20:00,
2013-01-22 22:25:00,24.3,5.5,30.26,NNW,344,0.0,2.0,44,0.00,,,0.00,Wunderground v.1.15,2013-01-23 03:25:00,
2013-01-22 22:30:00,24.2,4.4,30.26,NNW,344,0.0,2.0,42,0.00,,,0.00,Wunderground v.1.15,2013-01-23 03:30:00,
2013-01-22 22:35:00,24.1,3.8,30.26,SE,138,0.0,2.0,41,0.00,,,0.00,Wunderground v.1.15,2013-01-23 03:35:00,
2013-01-22 22:40:00,24.1,5.8,30.26,SE,137,0.0,2.0,45,0.00,,,0.00,Wunderground v.1.15,2013-01-23 03:40:00,
2013-01-22 22:45:00,24.0,4.2,30.26,NNE,23,0.0,2.0,42,0.00,,,0.00,Wunderground v.1.15,2013-01-23 03:45:00,
2013-01-22 22:50:00,24.0,3.7,30.26,NNE,23,0.0,2.0,41,0.00,,,0.00,Wunderground v.1.15,2013-01-23 03:50:00,
2013-01-22 22:55:00,24.0,3.7,30.26,NNE,23,0.0,2.0,41,0.00,,,0.00,Wunderground v.1.15,2013-01-23 03:55:00,
2013-01-22 23:00:00,23.9,5.6,30.26,NNE,23,0.0,2.0,45,0.00,,,0.00,Wunderground v.1.15,2013-01-23 04:00:00,
2013-01-22 23:05:00,23.8,6.5,30.26,NNE,23,0.0,2.0,47,0.00,,,0.00,Wunderground v.1.15,2013-01-23 04:05:00,
2013-01-22 23:15:00,23.5,4.2,30.26,NNE,23,0.0,2.0,43,0.00,,,0.00,Wunderground v.1.15,2013-01-23 04:15:00,
2013-01-22 23:20:00,23.5,5.7,30.26,NNE,23,0.0,2.0,46,0.00,,,0.00,Wunderground v.1.15,2013-01-23 04:20:00,
2013-01-22 23:25:00,23.4,5.2,30.26,NNE,23,0.0,2.0,45,0.00,,,0.00,Wunderground v.1.15,2013-01-23 04:25:00,
2013-01-22 23:30:00,23.4,3.1,30.27,NNE,23,0.0,2.0,41,0.00,,,0.00,Wunderground v.1.15,2013-01-23 04:30:00,
2013-01-22 23:35:00,23.4,4.2,30.27,NNE,22,0.0,2.0,43,0.00,,,0.00,Wunderground v.1.15,2013-01-23 04:35:00,
2013-01-22 23:45:00,23.3,4.6,30.26,NNE,22,0.0,2.0,44,0.00,,,0.00,Wunderground v.1.15,2013-01-23 04:45:00,
2013-01-22 23:50:00,23.2,4.5,30.27,NNE,22,0.0,2.0,44,0.00,,,0.00,Wunderground v.1.15,2013-01-23 04:50:00,
2013-01-22 23:55:00,23.1,4.4,30.27,NNE,22,0.0,2.0,44,0.00,,,0.00,Wunderground v.1.15,2013-01-23 04:55:00,